sensor_id;sensor_type;location;lat;lon;timestamp;temperature;humidity
18597;DHT22;9428;50.950;6.912;2022-07-15T00:00:17;18.00;99.90
18597;DHT22;9428;50.950;6.912;2022-07-15T00:03:05;18.00;99.90
18597;DHT22;9428;50.950;6.912;2022-07-15T00:05:52;17.90;99.90
18597;DHT22;9428;50.950;6.912;2022-07-15T00:08:41;18.00;99.90
18597;DHT22;9428;50.950;6.912;2022-07-15T00:11:28;17.90;99.90
18597;DHT22;9428;50.950;6.912;2022-07-15T00:14:15;17.90;99.90
18597;DHT22;9428;50.950;6.912;2022-07-15T00:17:03;17.90;99.90
18597;DHT22;9428;50.950;6.912;2022-07-15T00:19:50;17.80;99.90
18597;DHT22;9428;50.950;6.912;2022-07-15T00:22:38;17.70;99.90
18597;DHT22;9428;50.950;6.912;2022-07-15T00:25:27;17.70;99.90
18597;DHT22;9428;50.950;6.912;2022-07-15T00:28:14;17.70;99.90
18597;DHT22;9428;50.950;6.912;2022-07-15T00:31:01;17.60;99.90
18597;DHT22;9428;50.950;6.912;2022-07-15T00:33:49;17.50;99.90
18597;DHT22;9428;50.950;6.912;2022-07-15T00:36:42;17.30;99.90
18597;DHT22;9428;50.950;6.912;2022-07-15T00:39:30;17.50;99.90
18597;DHT22;9428;50.950;6.912;2022-07-15T00:42:18;17.20;99.90
18597;DHT22;9428;50.950;6.912;2022-07-15T00:45:22;17.30;99.90
18597;DHT22;9428;50.950;6.912;2022-07-15T00:48:09;17.10;99.90
18597;DHT22;9428;50.950;6.912;2022-07-15T00:50:57;17.30;99.90
18597;DHT22;9428;50.950;6.912;2022-07-15T00:53:46;17.30;99.90
18597;DHT22;9428;50.950;6.912;2022-07-15T00:56:37;17.30;99.90
18597;DHT22;9428;50.950;6.912;2022-07-15T00:59:32;17.20;99.90
18597;DHT22;9428;50.950;6.912;2022-07-15T01:02:20;17.20;99.90
18597;DHT22;9428;50.950;6.912;2022-07-15T01:05:08;17.00;99.90
18597;DHT22;9428;50.950;6.912;2022-07-15T01:07:57;17.20;99.90
18597;DHT22;9428;50.950;6.912;2022-07-15T01:10:45;17.40;99.90
18597;DHT22;9428;50.950;6.912;2022-07-15T01:13:33;17.30;99.90
18597;DHT22;9428;50.950;6.912;2022-07-15T01:16:22;17.30;99.90
18597;DHT22;9428;50.950;6.912;2022-07-15T01:19:09;17.20;99.90
18597;DHT22;9428;50.950;6.912;2022-07-15T01:21:57;17.30;99.90
18597;DHT22;9428;50.950;6.912;2022-07-15T01:24:45;17.20;99.90
18597;DHT22;9428;50.950;6.912;2022-07-15T01:27:32;17.30;99.90
18597;DHT22;9428;50.950;6.912;2022-07-15T01:30:20;17.30;99.90
18597;DHT22;9428;50.950;6.912;2022-07-15T01:33:07;17.10;99.90
18597;DHT22;9428;50.950;6.912;2022-07-15T01:35:55;17.10;99.90
18597;DHT22;9428;50.950;6.912;2022-07-15T01:38:44;17.10;99.90
18597;DHT22;9428;50.950;6.912;2022-07-15T01:41:31;17.00;99.90
18597;DHT22;9428;50.950;6.912;2022-07-15T01:44:18;17.20;99.90
18597;DHT22;9428;50.950;6.912;2022-07-15T01:47:05;17.00;99.90
18597;DHT22;9428;50.950;6.912;2022-07-15T01:49:52;17.00;99.90
18597;DHT22;9428;50.950;6.912;2022-07-15T01:52:40;17.20;99.90
18597;DHT22;9428;50.950;6.912;2022-07-15T01:55:29;17.10;99.90
18597;DHT22;9428;50.950;6.912;2022-07-15T01:58:16;17.00;99.90
18597;DHT22;9428;50.950;6.912;2022-07-15T02:01:04;17.20;99.90
18597;DHT22;9428;50.950;6.912;2022-07-15T02:03:51;17.20;99.90
18597;DHT22;9428;50.950;6.912;2022-07-15T02:06:39;17.00;99.90
18597;DHT22;9428;50.950;6.912;2022-07-15T02:09:27;17.10;99.90
18597;DHT22;9428;50.950;6.912;2022-07-15T02:12:15;17.10;99.90
18597;DHT22;9428;50.950;6.912;2022-07-15T02:15:04;17.20;99.90
18597;DHT22;9428;50.950;6.912;2022-07-15T02:17:52;17.20;99.90
18597;DHT22;9428;50.950;6.912;2022-07-15T02:20:39;17.20;99.90
18597;DHT22;9428;50.950;6.912;2022-07-15T02:23:26;17.30;99.90
18597;DHT22;9428;50.950;6.912;2022-07-15T02:26:14;17.00;99.90
18597;DHT22;9428;50.950;6.912;2022-07-15T02:29:03;17.10;99.90
18597;DHT22;9428;50.950;6.912;2022-07-15T02:31:50;17.20;99.90
18597;DHT22;9428;50.950;6.912;2022-07-15T02:34:37;17.00;99.90
18597;DHT22;9428;50.950;6.912;2022-07-15T02:37:24;17.00;99.90
18597;DHT22;9428;50.950;6.912;2022-07-15T02:40:12;16.70;99.90
18597;DHT22;9428;50.950;6.912;2022-07-15T02:43:01;17.00;99.90
18597;DHT22;9428;50.950;6.912;2022-07-15T02:45:50;16.90;99.90
18597;DHT22;9428;50.950;6.912;2022-07-15T02:48:38;16.90;99.90
18597;DHT22;9428;50.950;6.912;2022-07-15T02:51:25;17.00;99.90
18597;DHT22;9428;50.950;6.912;2022-07-15T02:54:12;17.20;99.90
18597;DHT22;9428;50.950;6.912;2022-07-15T02:56:59;17.20;99.90
18597;DHT22;9428;50.950;6.912;2022-07-15T02:59:47;17.20;99.90
18597;DHT22;9428;50.950;6.912;2022-07-15T03:02:35;17.10;99.90
18597;DHT22;9428;50.950;6.912;2022-07-15T03:05:22;17.10;99.90
18597;DHT22;9428;50.950;6.912;2022-07-15T03:08:10;17.10;99.90
18597;DHT22;9428;50.950;6.912;2022-07-15T03:10:57;16.90;99.90
18597;DHT22;9428;50.950;6.912;2022-07-15T03:13:44;16.90;99.90
18597;DHT22;9428;50.950;6.912;2022-07-15T03:16:32;16.70;99.90
18597;DHT22;9428;50.950;6.912;2022-07-15T03:19:21;16.90;99.90
18597;DHT22;9428;50.950;6.912;2022-07-15T03:22:08;16.70;99.90
18597;DHT22;9428;50.950;6.912;2022-07-15T03:24:55;16.80;99.90
18597;DHT22;9428;50.950;6.912;2022-07-15T03:27:42;16.90;99.90
18597;DHT22;9428;50.950;6.912;2022-07-15T03:30:30;17.00;99.90
18597;DHT22;9428;50.950;6.912;2022-07-15T03:33:17;17.00;99.90
18597;DHT22;9428;50.950;6.912;2022-07-15T03:36:06;16.90;99.90
18597;DHT22;9428;50.950;6.912;2022-07-15T03:38:53;17.00;99.90
18597;DHT22;9428;50.950;6.912;2022-07-15T03:41:40;16.90;99.90
18597;DHT22;9428;50.950;6.912;2022-07-15T03:44:28;16.90;99.90
18597;DHT22;9428;50.950;6.912;2022-07-15T03:47:15;17.00;99.90
18597;DHT22;9428;50.950;6.912;2022-07-15T03:50:03;17.10;99.90
18597;DHT22;9428;50.950;6.912;2022-07-15T03:52:51;17.10;99.90
18597;DHT22;9428;50.950;6.912;2022-07-15T03:55:39;16.90;99.90
18597;DHT22;9428;50.950;6.912;2022-07-15T03:58:26;16.90;99.90
18597;DHT22;9428;50.950;6.912;2022-07-15T04:01:13;16.90;99.90
18597;DHT22;9428;50.950;6.912;2022-07-15T04:04:00;16.90;99.90
18597;DHT22;9428;50.950;6.912;2022-07-15T04:06:48;16.90;99.90
18597;DHT22;9428;50.950;6.912;2022-07-15T04:09:37;16.70;99.90
18597;DHT22;9428;50.950;6.912;2022-07-15T04:12:24;16.70;99.90
18597;DHT22;9428;50.950;6.912;2022-07-15T04:15:11;16.70;99.90
18597;DHT22;9428;50.950;6.912;2022-07-15T04:18:00;16.60;99.90
18597;DHT22;9428;50.950;6.912;2022-07-15T04:20:47;16.70;99.90
18597;DHT22;9428;50.950;6.912;2022-07-15T04:23:35;16.70;99.90
18597;DHT22;9428;50.950;6.912;2022-07-15T04:26:24;16.60;99.90
18597;DHT22;9428;50.950;6.912;2022-07-15T04:29:11;16.50;99.90
18597;DHT22;9428;50.950;6.912;2022-07-15T04:31:59;16.50;99.90
18597;DHT22;9428;50.950;6.912;2022-07-15T04:34:46;16.60;99.90
18597;DHT22;9428;50.950;6.912;2022-07-15T04:37:33;16.50;99.90
18597;DHT22;9428;50.950;6.912;2022-07-15T04:40:21;16.60;99.90
18597;DHT22;9428;50.950;6.912;2022-07-15T04:43:09;16.50;99.90
18597;DHT22;9428;50.950;6.912;2022-07-15T04:45:57;16.60;99.90
18597;DHT22;9428;50.950;6.912;2022-07-15T04:48:44;17.40;99.90
18597;DHT22;9428;50.950;6.912;2022-07-15T04:51:48;16.60;99.90
18597;DHT22;9428;50.950;6.912;2022-07-15T04:54:36;16.60;99.90
18597;DHT22;9428;50.950;6.912;2022-07-15T04:57:23;16.70;99.90
18597;DHT22;9428;50.950;6.912;2022-07-15T05:00:12;16.70;99.90
18597;DHT22;9428;50.950;6.912;2022-07-15T05:02:59;16.80;99.90
18597;DHT22;9428;50.950;6.912;2022-07-15T05:05:48;16.40;99.90
18597;DHT22;9428;50.950;6.912;2022-07-15T05:08:36;16.30;99.90
18597;DHT22;9428;50.950;6.912;2022-07-15T05:11:23;16.40;99.90
18597;DHT22;9428;50.950;6.912;2022-07-15T05:14:10;16.30;99.90
18597;DHT22;9428;50.950;6.912;2022-07-15T05:17:00;16.60;99.90
18597;DHT22;9428;50.950;6.912;2022-07-15T05:19:47;16.80;99.90
18597;DHT22;9428;50.950;6.912;2022-07-15T05:22:34;16.60;99.90
18597;DHT22;9428;50.950;6.912;2022-07-15T05:25:22;16.70;99.90
18597;DHT22;9428;50.950;6.912;2022-07-15T05:28:09;16.70;99.90
18597;DHT22;9428;50.950;6.912;2022-07-15T05:30:57;16.70;99.90
18597;DHT22;9428;50.950;6.912;2022-07-15T05:33:46;16.70;99.90
18597;DHT22;9428;50.950;6.912;2022-07-15T05:36:33;16.70;99.90
18597;DHT22;9428;50.950;6.912;2022-07-15T05:39:20;16.70;99.90
18597;DHT22;9428;50.950;6.912;2022-07-15T05:42:07;16.80;99.90
18597;DHT22;9428;50.950;6.912;2022-07-15T05:44:55;16.80;99.90
18597;DHT22;9428;50.950;6.912;2022-07-15T05:47:47;16.80;99.90
18597;DHT22;9428;50.950;6.912;2022-07-15T05:50:38;16.70;99.90
18597;DHT22;9428;50.950;6.912;2022-07-15T05:53:25;16.80;99.90
18597;DHT22;9428;50.950;6.912;2022-07-15T05:56:12;16.80;99.90
18597;DHT22;9428;50.950;6.912;2022-07-15T05:58:59;16.80;99.90
18597;DHT22;9428;50.950;6.912;2022-07-15T06:01:47;16.90;99.90
18597;DHT22;9428;50.950;6.912;2022-07-15T06:04:34;16.80;99.90
18597;DHT22;9428;50.950;6.912;2022-07-15T06:07:23;16.70;99.90
18597;DHT22;9428;50.950;6.912;2022-07-15T06:10:10;16.60;99.90
18597;DHT22;9428;50.950;6.912;2022-07-15T06:12:57;16.70;99.90
18597;DHT22;9428;50.950;6.912;2022-07-15T06:15:45;16.90;99.90
18597;DHT22;9428;50.950;6.912;2022-07-15T06:18:32;16.70;99.90
18597;DHT22;9428;50.950;6.912;2022-07-15T06:21:19;16.90;99.90
18597;DHT22;9428;50.950;6.912;2022-07-15T06:24:08;17.60;99.90
18597;DHT22;9428;50.950;6.912;2022-07-15T06:26:55;17.10;99.90
18597;DHT22;9428;50.950;6.912;2022-07-15T06:29:42;17.00;99.90
18597;DHT22;9428;50.950;6.912;2022-07-15T06:32:29;17.00;99.90
18597;DHT22;9428;50.950;6.912;2022-07-15T06:35:17;17.00;99.90
18597;DHT22;9428;50.950;6.912;2022-07-15T06:38:04;17.00;99.90
18597;DHT22;9428;50.950;6.912;2022-07-15T06:40:53;17.10;99.90
18597;DHT22;9428;50.950;6.912;2022-07-15T06:43:40;17.10;99.90
18597;DHT22;9428;50.950;6.912;2022-07-15T06:46:28;17.30;99.90
18597;DHT22;9428;50.950;6.912;2022-07-15T06:49:16;17.30;99.90
18597;DHT22;9428;50.950;6.912;2022-07-15T06:52:03;17.10;99.90
18597;DHT22;9428;50.950;6.912;2022-07-15T06:54:51;17.20;99.90
18597;DHT22;9428;50.950;6.912;2022-07-15T06:57:41;17.10;99.90
18597;DHT22;9428;50.950;6.912;2022-07-15T07:00:28;17.00;99.90
18597;DHT22;9428;50.950;6.912;2022-07-15T07:03:15;17.00;99.90
18597;DHT22;9428;50.950;6.912;2022-07-15T07:06:03;17.20;99.90
18597;DHT22;9428;50.950;6.912;2022-07-15T07:08:52;17.50;99.90
18597;DHT22;9428;50.950;6.912;2022-07-15T07:11:39;17.70;99.90
18597;DHT22;9428;50.950;6.912;2022-07-15T07:14:28;17.50;99.90
18597;DHT22;9428;50.950;6.912;2022-07-15T07:17:15;17.50;99.90
18597;DHT22;9428;50.950;6.912;2022-07-15T07:20:03;17.50;99.90
18597;DHT22;9428;50.950;6.912;2022-07-15T07:22:51;17.50;99.90
18597;DHT22;9428;50.950;6.912;2022-07-15T07:25:38;17.60;99.90
18597;DHT22;9428;50.950;6.912;2022-07-15T07:28:26;17.50;99.90
18597;DHT22;9428;50.950;6.912;2022-07-15T07:31:14;17.80;99.90
18597;DHT22;9428;50.950;6.912;2022-07-15T07:34:02;17.90;99.90
18597;DHT22;9428;50.950;6.912;2022-07-15T07:36:49;17.90;99.90
18597;DHT22;9428;50.950;6.912;2022-07-15T07:39:36;17.80;99.90
18597;DHT22;9428;50.950;6.912;2022-07-15T07:42:24;17.80;99.90
18597;DHT22;9428;50.950;6.912;2022-07-15T07:45:11;17.70;99.90
18597;DHT22;9428;50.950;6.912;2022-07-15T07:48:00;17.90;99.90
18597;DHT22;9428;50.950;6.912;2022-07-15T07:50:48;17.90;99.90
18597;DHT22;9428;50.950;6.912;2022-07-15T07:53:35;17.90;99.90
18597;DHT22;9428;50.950;6.912;2022-07-15T07:56:22;18.00;99.90
18597;DHT22;9428;50.950;6.912;2022-07-15T07:59:10;18.20;99.90
18597;DHT22;9428;50.950;6.912;2022-07-15T08:01:57;18.50;99.90
18597;DHT22;9428;50.950;6.912;2022-07-15T08:04:46;18.10;99.90
18597;DHT22;9428;50.950;6.912;2022-07-15T08:07:33;18.00;99.90
18597;DHT22;9428;50.950;6.912;2022-07-15T08:10:21;18.00;99.90
18597;DHT22;9428;50.950;6.912;2022-07-15T08:13:08;17.80;99.90
18597;DHT22;9428;50.950;6.912;2022-07-15T08:15:56;18.00;99.90
18597;DHT22;9428;50.950;6.912;2022-07-15T08:18:43;17.80;99.90
18597;DHT22;9428;50.950;6.912;2022-07-15T08:21:32;17.90;99.90
18597;DHT22;9428;50.950;6.912;2022-07-15T08:24:19;18.00;99.90
18597;DHT22;9428;50.950;6.912;2022-07-15T08:27:07;18.30;99.90
18597;DHT22;9428;50.950;6.912;2022-07-15T08:29:54;18.70;99.90
18597;DHT22;9428;50.950;6.912;2022-07-15T08:32:41;18.80;99.90
18597;DHT22;9428;50.950;6.912;2022-07-15T08:35:29;19.40;99.90
18597;DHT22;9428;50.950;6.912;2022-07-15T08:38:18;19.80;99.90
18597;DHT22;9428;50.950;6.912;2022-07-15T08:41:05;20.00;99.90
18597;DHT22;9428;50.950;6.912;2022-07-15T08:43:52;19.80;99.90
18597;DHT22;9428;50.950;6.912;2022-07-15T08:46:41;19.70;99.90
18597;DHT22;9428;50.950;6.912;2022-07-15T08:49:32;19.50;99.90
18597;DHT22;9428;50.950;6.912;2022-07-15T08:52:20;19.20;99.90
18597;DHT22;9428;50.950;6.912;2022-07-15T08:55:09;19.10;99.90
18597;DHT22;9428;50.950;6.912;2022-07-15T08:57:56;19.10;99.90
18597;DHT22;9428;50.950;6.912;2022-07-15T09:00:43;19.20;99.90
18597;DHT22;9428;50.950;6.912;2022-07-15T09:03:31;19.00;99.90
18597;DHT22;9428;50.950;6.912;2022-07-15T09:06:30;19.00;99.90
18597;DHT22;9428;50.950;6.912;2022-07-15T09:09:32;19.10;99.90
18597;DHT22;9428;50.950;6.912;2022-07-15T09:12:21;19.00;99.90
18597;DHT22;9428;50.950;6.912;2022-07-15T09:15:09;19.10;99.90
18597;DHT22;9428;50.950;6.912;2022-07-15T09:18:16;19.80;99.90
18597;DHT22;9428;50.950;6.912;2022-07-15T09:21:14;20.20;99.90
18597;DHT22;9428;50.950;6.912;2022-07-15T09:24:15;20.40;99.90
18597;DHT22;9428;50.950;6.912;2022-07-15T09:27:28;20.20;99.90
18597;DHT22;9428;50.950;6.912;2022-07-15T09:30:19;19.90;99.90
18597;DHT22;9428;50.950;6.912;2022-07-15T09:33:26;19.60;99.90
18597;DHT22;9428;50.950;6.912;2022-07-15T09:36:25;19.50;99.90
18597;DHT22;9428;50.950;6.912;2022-07-15T09:39:12;19.50;99.90
18597;DHT22;9428;50.950;6.912;2022-07-15T09:42:05;19.60;99.90
18597;DHT22;9428;50.950;6.912;2022-07-15T09:44:55;19.40;99.90
18597;DHT22;9428;50.950;6.912;2022-07-15T09:48:06;19.60;99.90
18597;DHT22;9428;50.950;6.912;2022-07-15T09:51:00;19.80;99.90
18597;DHT22;9428;50.950;6.912;2022-07-15T09:53:48;19.90;99.90
18597;DHT22;9428;50.950;6.912;2022-07-15T09:56:36;20.00;99.90
18597;DHT22;9428;50.950;6.912;2022-07-15T09:59:24;20.30;99.90
18597;DHT22;9428;50.950;6.912;2022-07-15T10:02:13;20.60;99.90
18597;DHT22;9428;50.950;6.912;2022-07-15T10:05:01;20.50;99.90
18597;DHT22;9428;50.950;6.912;2022-07-15T10:07:48;20.40;99.90
18597;DHT22;9428;50.950;6.912;2022-07-15T10:10:38;20.70;99.90
18597;DHT22;9428;50.950;6.912;2022-07-15T10:17:23;20.50;99.90
18597;DHT22;9428;50.950;6.912;2022-07-15T10:26:55;20.10;99.90
18597;DHT22;9428;50.950;6.912;2022-07-15T10:29:45;20.20;99.90
18597;DHT22;9428;50.950;6.912;2022-07-15T10:33:12;20.30;99.90
18597;DHT22;9428;50.950;6.912;2022-07-15T10:36:04;19.90;99.90
18597;DHT22;9428;50.950;6.912;2022-07-15T10:39:02;20.10;99.90
18597;DHT22;9428;50.950;6.912;2022-07-15T10:41:52;20.00;99.90
18597;DHT22;9428;50.950;6.912;2022-07-15T10:44:49;19.70;99.90
18597;DHT22;9428;50.950;6.912;2022-07-15T10:47:37;19.70;99.90
18597;DHT22;9428;50.950;6.912;2022-07-15T10:50:38;20.00;99.90
18597;DHT22;9428;50.950;6.912;2022-07-15T10:53:26;19.90;99.90
18597;DHT22;9428;50.950;6.912;2022-07-15T10:56:28;20.20;99.90
18597;DHT22;9428;50.950;6.912;2022-07-15T10:59:18;20.20;99.90
18597;DHT22;9428;50.950;6.912;2022-07-15T11:02:16;20.30;99.90
18597;DHT22;9428;50.950;6.912;2022-07-15T11:05:20;20.30;99.90
18597;DHT22;9428;50.950;6.912;2022-07-15T11:11:46;20.90;99.90
18597;DHT22;9428;50.950;6.912;2022-07-15T11:14:43;21.10;99.90
18597;DHT22;9428;50.950;6.912;2022-07-15T11:17:39;21.00;99.90
18597;DHT22;9428;50.950;6.912;2022-07-15T11:20:33;21.00;99.90
18597;DHT22;9428;50.950;6.912;2022-07-15T11:23:29;21.00;99.90
18597;DHT22;9428;50.950;6.912;2022-07-15T11:26:17;20.90;99.90
18597;DHT22;9428;50.950;6.912;2022-07-15T11:29:06;20.90;99.90
18597;DHT22;9428;50.950;6.912;2022-07-15T11:31:55;20.60;99.90
18597;DHT22;9428;50.950;6.912;2022-07-15T11:34:44;20.10;99.90
18597;DHT22;9428;50.950;6.912;2022-07-15T11:37:33;20.50;99.90
18597;DHT22;9428;50.950;6.912;2022-07-15T11:40:20;20.30;99.90
18597;DHT22;9428;50.950;6.912;2022-07-15T11:43:21;20.70;99.90
18597;DHT22;9428;50.950;6.912;2022-07-15T11:46:29;20.70;99.90
18597;DHT22;9428;50.950;6.912;2022-07-15T11:49:26;20.80;99.90
18597;DHT22;9428;50.950;6.912;2022-07-15T11:52:22;21.20;99.90
18597;DHT22;9428;50.950;6.912;2022-07-15T11:55:10;21.30;99.90
18597;DHT22;9428;50.950;6.912;2022-07-15T11:57:57;21.20;99.90
18597;DHT22;9428;50.950;6.912;2022-07-15T12:00:47;21.30;99.90
18597;DHT22;9428;50.950;6.912;2022-07-15T12:03:39;21.20;99.90
18597;DHT22;9428;50.950;6.912;2022-07-15T12:06:28;21.10;99.90
18597;DHT22;9428;50.950;6.912;2022-07-15T12:09:15;21.30;99.90
18597;DHT22;9428;50.950;6.912;2022-07-15T12:12:03;21.10;99.90
18597;DHT22;9428;50.950;6.912;2022-07-15T12:14:53;20.80;99.90
18597;DHT22;9428;50.950;6.912;2022-07-15T12:17:40;20.90;99.90
18597;DHT22;9428;50.950;6.912;2022-07-15T12:20:29;21.00;99.90
18597;DHT22;9428;50.950;6.912;2022-07-15T12:23:17;21.00;99.90
18597;DHT22;9428;50.950;6.912;2022-07-15T12:26:08;21.40;99.90
18597;DHT22;9428;50.950;6.912;2022-07-15T12:28:56;21.00;99.90
18597;DHT22;9428;50.950;6.912;2022-07-15T12:31:51;21.00;99.90
18597;DHT22;9428;50.950;6.912;2022-07-15T12:34:53;20.80;99.90
18597;DHT22;9428;50.950;6.912;2022-07-15T12:37:48;20.70;99.90
18597;DHT22;9428;50.950;6.912;2022-07-15T12:40:36;20.80;99.90
18597;DHT22;9428;50.950;6.912;2022-07-15T12:43:47;20.90;99.90
18597;DHT22;9428;50.950;6.912;2022-07-15T12:46:53;20.80;99.90
18597;DHT22;9428;50.950;6.912;2022-07-15T12:49:46;20.80;99.90
18597;DHT22;9428;50.950;6.912;2022-07-15T12:52:36;20.70;99.90
18597;DHT22;9428;50.950;6.912;2022-07-15T12:55:26;20.70;99.90
18597;DHT22;9428;50.950;6.912;2022-07-15T12:58:15;20.80;99.90
18597;DHT22;9428;50.950;6.912;2022-07-15T13:01:08;20.80;99.90
18597;DHT22;9428;50.950;6.912;2022-07-15T13:04:03;21.00;99.90
18597;DHT22;9428;50.950;6.912;2022-07-15T13:06:50;21.00;99.90
18597;DHT22;9428;50.950;6.912;2022-07-15T13:09:37;20.90;99.90
18597;DHT22;9428;50.950;6.912;2022-07-15T13:12:25;21.10;99.90
18597;DHT22;9428;50.950;6.912;2022-07-15T13:15:13;21.40;99.90
18597;DHT22;9428;50.950;6.912;2022-07-15T13:18:00;21.60;99.90
18597;DHT22;9428;50.950;6.912;2022-07-15T13:20:49;21.60;99.90
18597;DHT22;9428;50.950;6.912;2022-07-15T13:23:36;21.50;99.90
18597;DHT22;9428;50.950;6.912;2022-07-15T13:26:23;21.40;99.90
18597;DHT22;9428;50.950;6.912;2022-07-15T13:29:11;21.30;99.90
18597;DHT22;9428;50.950;6.912;2022-07-15T13:31:58;21.20;99.90
18597;DHT22;9428;50.950;6.912;2022-07-15T13:34:45;21.00;99.90
18597;DHT22;9428;50.950;6.912;2022-07-15T13:37:34;21.20;99.90
18597;DHT22;9428;50.950;6.912;2022-07-15T13:40:21;21.30;99.90
18597;DHT22;9428;50.950;6.912;2022-07-15T13:43:08;21.10;99.90
18597;DHT22;9428;50.950;6.912;2022-07-15T13:45:56;20.90;99.90
18597;DHT22;9428;50.950;6.912;2022-07-15T13:48:43;20.90;99.90
18597;DHT22;9428;50.950;6.912;2022-07-15T13:51:30;21.00;99.90
18597;DHT22;9428;50.950;6.912;2022-07-15T13:54:18;20.80;99.90
18597;DHT22;9428;50.950;6.912;2022-07-15T13:57:05;20.90;99.90
18597;DHT22;9428;50.950;6.912;2022-07-15T13:59:53;21.00;99.90
18597;DHT22;9428;50.950;6.912;2022-07-15T14:02:40;21.10;99.90
18597;DHT22;9428;50.950;6.912;2022-07-15T14:05:28;21.10;99.90
18597;DHT22;9428;50.950;6.912;2022-07-15T14:08:15;21.10;99.90
18597;DHT22;9428;50.950;6.912;2022-07-15T14:11:04;21.40;99.90
18597;DHT22;9428;50.950;6.912;2022-07-15T14:13:51;21.60;99.90
18597;DHT22;9428;50.950;6.912;2022-07-15T14:16:38;21.60;99.90
18597;DHT22;9428;50.950;6.912;2022-07-15T14:19:25;21.70;99.90
18597;DHT22;9428;50.950;6.912;2022-07-15T14:22:13;21.50;99.90
18597;DHT22;9428;50.950;6.912;2022-07-15T14:25:01;21.60;99.90
18597;DHT22;9428;50.950;6.912;2022-07-15T14:27:52;21.80;99.90
18597;DHT22;9428;50.950;6.912;2022-07-15T14:30:39;21.70;99.90
18597;DHT22;9428;50.950;6.912;2022-07-15T14:33:26;21.90;99.90
18597;DHT22;9428;50.950;6.912;2022-07-15T14:36:14;21.80;99.90
18597;DHT22;9428;50.950;6.912;2022-07-15T14:39:01;21.60;99.90
18597;DHT22;9428;50.950;6.912;2022-07-15T14:41:48;21.50;99.90
18597;DHT22;9428;50.950;6.912;2022-07-15T14:44:37;21.60;99.90
18597;DHT22;9428;50.950;6.912;2022-07-15T14:47:24;21.60;99.90
18597;DHT22;9428;50.950;6.912;2022-07-15T14:50:12;21.50;99.90
18597;DHT22;9428;50.950;6.912;2022-07-15T14:52:59;21.60;99.90
18597;DHT22;9428;50.950;6.912;2022-07-15T14:55:47;21.70;99.90
18597;DHT22;9428;50.950;6.912;2022-07-15T14:58:34;21.70;99.90
18597;DHT22;9428;50.950;6.912;2022-07-15T15:01:23;22.00;99.90
18597;DHT22;9428;50.950;6.912;2022-07-15T15:04:10;21.90;99.90
18597;DHT22;9428;50.950;6.912;2022-07-15T15:06:57;21.80;99.90
18597;DHT22;9428;50.950;6.912;2022-07-15T15:09:45;21.90;99.90
18597;DHT22;9428;50.950;6.912;2022-07-15T15:12:32;22.00;99.90
18597;DHT22;9428;50.950;6.912;2022-07-15T15:15:20;22.10;99.90
18597;DHT22;9428;50.950;6.912;2022-07-15T15:18:11;21.80;99.90
18597;DHT22;9428;50.950;6.912;2022-07-15T15:20:58;21.70;99.90
18597;DHT22;9428;50.950;6.912;2022-07-15T15:23:45;21.50;99.90
18597;DHT22;9428;50.950;6.912;2022-07-15T15:26:33;21.60;99.90
18597;DHT22;9428;50.950;6.912;2022-07-15T15:29:20;21.70;99.90
18597;DHT22;9428;50.950;6.912;2022-07-15T15:32:07;21.90;99.90
18597;DHT22;9428;50.950;6.912;2022-07-15T15:34:58;22.00;99.90
18597;DHT22;9428;50.950;6.912;2022-07-15T15:37:46;21.90;99.90
18597;DHT22;9428;50.950;6.912;2022-07-15T15:40:33;21.80;99.90
18597;DHT22;9428;50.950;6.912;2022-07-15T15:43:20;21.90;99.90
18597;DHT22;9428;50.950;6.912;2022-07-15T15:46:07;21.70;99.90
18597;DHT22;9428;50.950;6.912;2022-07-15T15:48:55;21.70;99.90
18597;DHT22;9428;50.950;6.912;2022-07-15T15:51:44;21.70;99.90
18597;DHT22;9428;50.950;6.912;2022-07-15T15:54:31;21.40;99.90
18597;DHT22;9428;50.950;6.912;2022-07-15T15:57:18;21.50;99.90
18597;DHT22;9428;50.950;6.912;2022-07-15T16:00:07;21.60;99.90
18597;DHT22;9428;50.950;6.912;2022-07-15T16:02:54;21.50;99.90
18597;DHT22;9428;50.950;6.912;2022-07-15T16:05:42;21.60;99.90
18597;DHT22;9428;50.950;6.912;2022-07-15T16:08:30;21.40;99.90
18597;DHT22;9428;50.950;6.912;2022-07-15T16:11:18;21.40;99.90
18597;DHT22;9428;50.950;6.912;2022-07-15T16:14:05;21.40;99.90
18597;DHT22;9428;50.950;6.912;2022-07-15T16:16:52;21.60;99.90
18597;DHT22;9428;50.950;6.912;2022-07-15T16:19:40;21.70;99.90
18597;DHT22;9428;50.950;6.912;2022-07-15T16:22:27;21.60;99.90
18597;DHT22;9428;50.950;6.912;2022-07-15T16:25:35;21.70;99.90
18597;DHT22;9428;50.950;6.912;2022-07-15T16:28:23;21.80;99.90
18597;DHT22;9428;50.950;6.912;2022-07-15T16:31:10;21.80;99.90
18597;DHT22;9428;50.950;6.912;2022-07-15T16:33:57;22.00;99.90
18597;DHT22;9428;50.950;6.912;2022-07-15T16:36:45;21.80;99.90
18597;DHT22;9428;50.950;6.912;2022-07-15T16:39:32;21.90;99.90
18597;DHT22;9428;50.950;6.912;2022-07-15T16:42:21;21.80;99.90
18597;DHT22;9428;50.950;6.912;2022-07-15T16:45:08;21.80;99.90
18597;DHT22;9428;50.950;6.912;2022-07-15T16:47:56;21.70;99.90
18597;DHT22;9428;50.950;6.912;2022-07-15T16:50:44;21.80;99.90
18597;DHT22;9428;50.950;6.912;2022-07-15T16:53:31;21.90;99.90
18597;DHT22;9428;50.950;6.912;2022-07-15T16:56:19;21.90;99.90
18597;DHT22;9428;50.950;6.912;2022-07-15T16:59:07;21.80;99.90
18597;DHT22;9428;50.950;6.912;2022-07-15T17:01:55;21.80;99.90
18597;DHT22;9428;50.950;6.912;2022-07-15T17:04:43;21.80;99.90
18597;DHT22;9428;50.950;6.912;2022-07-15T17:07:31;21.90;99.90
18597;DHT22;9428;50.950;6.912;2022-07-15T17:10:18;21.80;99.90
18597;DHT22;9428;50.950;6.912;2022-07-15T17:13:06;21.80;99.90
18597;DHT22;9428;50.950;6.912;2022-07-15T17:15:54;21.80;99.90
18597;DHT22;9428;50.950;6.912;2022-07-15T17:18:42;21.70;99.90
18597;DHT22;9428;50.950;6.912;2022-07-15T17:21:29;21.90;99.90
18597;DHT22;9428;50.950;6.912;2022-07-15T17:24:16;21.90;99.90
18597;DHT22;9428;50.950;6.912;2022-07-15T17:27:04;21.90;99.90
18597;DHT22;9428;50.950;6.912;2022-07-15T17:29:51;21.80;99.90
18597;DHT22;9428;50.950;6.912;2022-07-15T17:32:40;21.90;99.90
18597;DHT22;9428;50.950;6.912;2022-07-15T17:35:27;21.90;99.90
18597;DHT22;9428;50.950;6.912;2022-07-15T17:38:14;21.90;99.90
18597;DHT22;9428;50.950;6.912;2022-07-15T17:41:02;21.60;99.90
18597;DHT22;9428;50.950;6.912;2022-07-15T17:43:49;21.60;99.90
18597;DHT22;9428;50.950;6.912;2022-07-15T17:46:37;21.70;99.90
18597;DHT22;9428;50.950;6.912;2022-07-15T17:49:25;21.70;99.90
18597;DHT22;9428;50.950;6.912;2022-07-15T17:52:13;21.60;99.90
18597;DHT22;9428;50.950;6.912;2022-07-15T17:55:00;21.60;99.90
18597;DHT22;9428;50.950;6.912;2022-07-15T17:57:47;21.60;99.90
18597;DHT22;9428;50.950;6.912;2022-07-15T18:00:34;21.60;99.90
18597;DHT22;9428;50.950;6.912;2022-07-15T18:03:22;21.50;99.90
18597;DHT22;9428;50.950;6.912;2022-07-15T18:06:11;21.50;99.90
18597;DHT22;9428;50.950;6.912;2022-07-15T18:08:58;21.50;99.90
18597;DHT22;9428;50.950;6.912;2022-07-15T18:11:45;21.50;99.90
18597;DHT22;9428;50.950;6.912;2022-07-15T18:14:33;21.40;99.90
18597;DHT22;9428;50.950;6.912;2022-07-15T18:17:20;21.50;99.90